Time;durP1;ratioP1;P1;durP2;ratioP2;P2;SDS_P1;SDS_P2;PMS_P1;PMS_P2;Temp;Humidity;BMP_temperature;BMP_pressure;BME280_temperature;BME280_humidity;BME280_pressure;Samples;Min_cycle;Max_cycle;Signal;HPM_P1;HPM_P2
2023/01/09 00:01:14;;;;;;;12.60;5.40;;;;;;;-13.53;100.00;101468.42;107075;1275;22777;-67
2023/01/09 00:03:42;;;;;;;10.00;5.20;;;;;;;-13.56;100.00;101463.02;106969;1275;22548;-68
2023/01/09 00:06:09;;;;;;;12.80;4.50;;;;;;;-13.59;100.00;101462.98;106111;1276;1003453;-67
2023/01/09 00:08:37;;;;;;;8.90;4.40;;;;;;;-13.61;100.00;101469.38;106955;1275;22616;-68
2023/01/09 00:11:04;;;;;;;11.80;4.40;;;;;;;-13.63;100.00;101463.64;106276;1275;1003065;-68
2023/01/09 00:13:32;;;;;;;7.80;4.50;;;;;;;-13.66;100.00;101458.23;106726;1276;22622;-68
2023/01/09 00:15:59;;;;;;;11.90;5.10;;;;;;;-13.68;100.00;101460.13;106098;1276;1002930;-65
2023/01/09 00:18:27;;;;;;;14.30;4.80;;;;;;;-13.68;100.00;101459.09;106894;1276;22693;-67
2023/01/09 00:20:54;;;;;;;13.30;4.70;;;;;;;-13.69;100.00;101456.46;106983;1253;24229;-66
2023/01/09 00:23:21;;;;;;;8.50;3.70;;;;;;;-13.68;100.00;101450.59;106211;1275;1003089;-68
2023/01/09 00:25:49;;;;;;;11.70;4.70;;;;;;;-13.65;100.00;101451.13;106094;1276;1003059;-67
2023/01/09 00:28:16;;;;;;;9.50;4.20;;;;;;;-13.62;100.00;101452.02;106269;1275;1003308;-67
2023/01/09 00:30:44;;;;;;;13.90;4.80;;;;;;;-13.60;100.00;101447.89;106989;1275;22914;-68
2023/01/09 00:33:11;;;;;;;9.90;4.80;;;;;;;-13.61;100.00;101447.20;106136;1276;1003081;-70
2023/01/09 00:35:39;;;;;;;10.00;4.40;;;;;;;-13.61;100.00;101445.11;105887;1276;1003402;-68
2023/01/09 00:38:06;;;;;;;11.10;4.00;;;;;;;-13.62;100.00;101446.31;107026;1275;22544;-67
2023/01/09 00:40:33;;;;;;;13.30;5.20;;;;;;;-13.62;100.00;101440.57;106270;1275;1003635;-67
2023/01/09 00:43:01;;;;;;;11.60;4.40;;;;;;;-13.65;100.00;101438.13;106949;1275;22673;-69
2023/01/09 00:45:28;;;;;;;8.20;4.60;;;;;;;-13.69;100.00;101434.98;106640;1276;24255;-68
2023/01/09 00:48:23;;;;;;;15.90;5.40;;;;;;;-13.71;100.00;101433.39;106978;1276;22877;-67
2023/01/09 00:50:51;;;;;;;9.00;4.40;;;;;;;-13.74;100.00;101430.92;106345;1275;1003452;-71
2023/01/09 00:53:20;;;;;;;9.60;4.10;;;;;;;-13.77;100.00;101428.13;106226;1276;1002677;-70
2023/01/09 00:55:48;;;;;;;8.80;4.70;;;;;;;-13.79;100.00;101422.55;106895;1276;22643;-68
2023/01/09 00:58:16;;;;;;;11.00;4.50;;;;;;;-13.80;100.00;101423.59;107023;1275;23008;-70
2023/01/09 01:00:43;;;;;;;9.10;4.10;;;;;;;-13.79;100.00;101415.79;106162;1275;1002937;-67
2023/01/09 01:03:10;;;;;;;14.70;4.50;;;;;;;-13.79;100.00;101412.84;106848;1276;22627;-66
2023/01/09 01:08:24;;;;;;;8.70;4.50;;;;;;;-13.81;100.00;101405.38;106946;1275;25553;-67
2023/01/09 01:10:51;;;;;;;16.40;5.10;;;;;;;-13.84;100.00;101399.27;106196;1275;1002466;-68
2023/01/09 01:13:19;;;;;;;18.40;5.60;;;;;;;-13.87;100.00;101394.39;106949;1275;22947;-67
2023/01/09 01:15:46;;;;;;;9.80;4.80;;;;;;;-13.91;100.00;101389.83;106138;1253;1002940;-69
2023/01/09 01:18:13;;;;;;;9.10;5.00;;;;;;;-13.95;100.00;101387.88;106197;1275;1002833;-68
2023/01/09 01:20:42;;;;;;;11.20;4.20;;;;;;;-13.96;100.00;101385.11;106915;1275;24282;-67
2023/01/09 01:23:09;;;;;;;14.00;5.40;;;;;;;-13.98;100.00;101383.52;106160;1276;1003660;-69
2023/01/09 01:25:38;;;;;;;21.10;6.30;;;;;;;-13.98;100.00;101379.36;106980;1275;22632;-67
2023/01/09 01:28:06;;;;;;;22.10;6.00;;;;;;;-13.99;100.00;101380.73;107061;1275;24306;-68
2023/01/09 01:30:39;;;;;;;14.20;4.60;;;;;;;-14.00;100.00;101380.38;106116;1276;1003658;-66
2023/01/09 01:33:07;;;;;;;15.80;4.40;;;;;;;-14.00;100.00;101377.44;106963;1265;22994;-68
2023/01/09 01:35:34;;;;;;;16.10;5.10;;;;;;;-14.00;100.00;101376.74;106258;1275;1003034;-68
2023/01/09 01:38:02;;;;;;;9.80;4.30;;;;;;;-14.00;100.00;101367.73;106167;1275;1003284;-67
2023/01/09 01:40:29;;;;;;;8.90;4.60;;;;;;;-14.00;100.00;101364.61;106810;1275;22573;-68
2023/01/09 01:42:57;;;;;;;8.80;4.40;;;;;;;-14.00;100.00;101365.48;106165;1276;1003400;-67
2023/01/09 01:45:27;;;;;;;7.40;3.90;;;;;;;-14.00;100.00;101366.87;106562;1276;1003386;-68
2023/01/09 01:48:09;;;;;;;6.90;3.50;;;;;;;-13.98;100.00;101368.96;108749;1276;24090;-68
2023/01/09 01:50:38;;;;;;;;;;;;;;;-13.96;100.00;101365.88;107162;1276;1003083;-67
2023/01/09 01:53:17;;;;;;;8.30;3.90;;;;;;;-13.93;100.00;101358.09;106332;1275;1003391;-67
2023/01/09 01:55:53;;;;;;;11.70;4.30;;;;;;;-13.93;100.00;101355.33;106883;1276;24181;-69
2023/01/09 01:58:20;;;;;;;12.20;4.90;;;;;;;-13.92;100.00;101356.88;106115;1275;1003666;-68
2023/01/09 02:00:47;;;;;;;9.40;4.20;;;;;;;-13.92;100.00;101351.52;106834;1276;25433;-68
2023/01/09 02:03:17;;;;;;;11.40;5.10;;;;;;;-13.91;100.00;101348.22;106185;1275;1003069;-69
2023/01/09 02:05:44;;;;;;;14.50;4.60;;;;;;;-13.90;100.00;101349.28;106131;1276;1002990;-66
2023/01/09 02:08:11;;;;;;;10.70;4.50;;;;;;;-13.90;100.00;101343.21;106102;1276;1002967;-68
2023/01/09 02:10:39;;;;;;;9.30;4.20;;;;;;;-13.89;100.00;101340.11;106906;1275;24047;-68
2023/01/09 02:13:07;;;;;;;9.60;4.00;;;;;;;-13.87;100.00;101335.27;106923;1275;24257;-67
2023/01/09 02:16:00;;;;;;;10.30;4.20;;;;;;;-13.84;100.00;101333.21;106088;1276;1003008;-68
2023/01/09 02:18:56;;;;;;;14.90;5.10;;;;;;;-13.80;100.00;101323.71;106057;1276;1003042;-67
2023/01/09 02:21:33;;;;;;;13.10;4.30;;;;;;;-13.77;100.00;101323.41;106976;1275;22564;-69
2023/01/09 02:24:24;;;;;;;8.20;4.20;;;;;;;-13.75;100.00;101316.13;106907;1276;24341;-68
2023/01/09 02:27:10;;;;;;;10.00;4.50;;;;;;;-13.71;100.00;101312.86;106756;1276;24244;-70
2023/01/09 02:30:01;;;;;;;7.00;3.10;;;;;;;-13.68;100.00;101310.30;106155;1256;1003085;-69
2023/01/09 02:32:55;;;;;;;12.80;4.40;;;;;;;-13.68;100.00;101307.17;106966;1275;22703;-68
2023/01/09 02:35:33;;;;;;;10.20;3.80;;;;;;;-13.66;100.00;101301.98;106975;1255;22919;-67
2023/01/09 02:38:19;;;;;;;8.60;4.60;;;;;;;-13.66;100.00;101297.31;106815;1276;24787;-68
2023/01/09 02:40:52;;;;;;;8.30;4.40;;;;;;;-13.66;100.00;101294.36;106230;1275;1015958;-67
2023/01/09 02:43:19;;;;;;;9.40;4.10;;;;;;;-13.66;100.00;101293.48;106187;1275;1003762;-70
2023/01/09 02:45:47;;;;;;;10.00;4.10;;;;;;;-13.64;100.00;101293.16;105864;1276;1003747;-68
2023/01/09 02:48:14;;;;;;;12.60;5.60;;;;;;;-13.64;100.00;101291.94;106831;1276;25754;-67
2023/01/09 02:50:56;;;;;;;12.70;5.20;;;;;;;-13.65;100.00;101293.49;106837;1275;24837;-68
2023/01/09 02:53:48;;;;;;;10.30;4.40;;;;;;;-13.66;100.00;101297.13;106912;1275;22522;-67
2023/01/09 02:56:32;;;;;;;;;;;;;;;-13.67;100.00;101295.55;106986;1275;22523;-68
2023/01/09 02:59:12;;;;;;;8.70;4.50;;;;;;;-13.69;100.00;101295.02;106963;1275;23920;-68
2023/01/09 03:02:06;;;;;;;13.30;4.80;;;;;;;-13.70;100.00;101292.41;106897;1253;22951;-66
2023/01/09 03:04:57;;;;;;;13.10;4.30;;;;;;;-13.74;100.00;101290.12;106149;1276;1003787;-67
2023/01/09 03:07:31;;;;;;;7.20;4.40;;;;;;;-13.78;100.00;101287.85;106869;1276;22757;-68
2023/01/09 03:10:29;;;;;;;9.60;4.20;;;;;;;-13.78;100.00;101287.32;106150;1275;1003398;-68
2023/01/09 03:12:56;;;;;;;12.20;5.50;;;;;;;-13.79;100.00;101298.06;106798;1276;24242;-68
2023/01/09 03:15:26;;;;;;;13.00;5.90;;;;;;;-13.78;100.00;101288.19;106185;1275;1002911;-66
2023/01/09 03:17:53;;;;;;;13.60;6.30;;;;;;;-13.75;100.00;101291.51;106845;1276;26089;-68
2023/01/09 03:20:22;;;;;;;16.80;7.00;;;;;;;-13.74;100.00;101285.79;106949;1275;24199;-68
2023/01/09 03:22:57;;;;;;;18.40;6.40;;;;;;;-13.71;100.00;101282.35;106899;1276;22618;-67
2023/01/09 03:25:25;;;;;;;18.80;6.40;;;;;;;-13.70;100.00;101272.64;106684;1276;22704;-68
2023/01/09 03:28:07;;;;;;;14.70;5.00;;;;;;;-13.69;100.00;101273.36;106857;1276;23283;-68
2023/01/09 03:30:35;;;;;;;11.50;5.00;;;;;;;-13.67;100.00;101276.31;106207;1276;1003613;-68
2023/01/09 03:33:02;;;;;;;9.50;4.80;;;;;;;-13.69;100.00;101278.71;106131;1276;1003090;-69
2023/01/09 03:35:29;;;;;;;10.40;4.40;;;;;;;-13.72;100.00;101274.38;106795;1267;22944;-72
2023/01/09 03:38:00;;;;;;;9.10;4.10;;;;;;;-13.76;100.00;101274.33;106968;1275;24791;-70
2023/01/09 03:40:27;;;;;;;15.50;6.10;;;;;;;-13.78;100.00;101268.59;106095;1252;1003142;-69
2023/01/09 03:42:54;;;;;;;15.20;5.80;;;;;;;-13.80;100.00;101264.77;106838;1252;24779;-67
2023/01/09 03:45:22;;;;;;;13.50;4.50;;;;;;;-13.81;100.00;101264.77;106105;1276;1003089;-69
2023/01/09 03:47:49;;;;;;;10.60;4.30;;;;;;;-13.83;100.00;101264.74;106225;1275;1015661;-68
2023/01/09 03:50:19;;;;;;;13.50;5.00;;;;;;;-13.85;100.00;101268.38;106745;1276;22708;-69
2023/01/09 03:52:46;;;;;;;11.10;4.60;;;;;;;-13.85;100.00;101266.29;106924;1275;22639;-67
2023/01/09 03:55:13;;;;;;;14.10;4.70;;;;;;;-13.85;100.00;101267.16;106130;1275;1002876;-68
2023/01/09 03:57:41;;;;;;;10.70;4.50;;;;;;;-13.86;100.00;101267.85;106182;1275;1003375;-68
2023/01/09 04:00:10;;;;;;;12.20;5.10;;;;;;;-13.88;100.00;101268.52;106873;1276;24222;-69
2023/01/09 04:02:41;;;;;;;11.20;4.70;;;;;;;-13.90;100.00;101269.70;106219;1275;1003451;-68
2023/01/09 04:05:09;;;;;;;15.70;5.40;;;;;;;-13.91;100.00;101277.84;106090;1276;1003596;-68
2023/01/09 04:07:37;;;;;;;9.80;4.00;;;;;;;-13.92;100.00;101282.52;106819;1276;25491;-68
2023/01/09 04:10:06;;;;;;;9.90;4.10;;;;;;;-13.92;100.00;101279.92;106905;1276;22659;-67
2023/01/09 04:12:33;;;;;;;11.50;4.00;;;;;;;-13.91;100.00;101281.15;106959;1275;24241;-68
2023/01/09 04:15:00;;;;;;;11.70;4.90;;;;;;;-13.89;100.00;101280.29;106906;1275;22797;-68
2023/01/09 04:17:28;;;;;;;12.50;4.00;;;;;;;-13.87;100.00;101280.31;106096;1276;1003262;-67
2023/01/09 04:19:55;;;;;;;8.70;4.90;;;;;;;-13.87;100.00;101279.97;106725;1253;24342;-68
2023/01/09 04:22:23;;;;;;;11.00;4.40;;;;;;;-13.86;100.00;101288.30;106814;1276;22612;-68
2023/01/09 04:24:50;;;;;;;12.40;6.00;;;;;;;-13.85;100.00;101284.66;107030;1275;1003120;-68
2023/01/09 04:27:17;;;;;;;13.20;5.70;;;;;;;-13.85;100.00;101281.38;108772;1252;24416;-69
2023/01/09 04:29:45;;;;;;;9.40;4.30;;;;;;;-13.82;100.00;101279.48;107809;1276;23988;-67
2023/01/09 04:32:12;;;;;;;8.30;4.60;;;;;;;-13.83;100.00;101286.25;106959;1276;24322;-68
2023/01/09 04:34:39;;;;;;;9.50;4.40;;;;;;;-13.83;100.00;101289.71;106917;1276;26344;-68
2023/01/09 04:37:07;;;;;;;7.80;4.20;;;;;;;-13.85;100.00;101291.27;106179;1275;1003747;-67
2023/01/09 04:39:34;;;;;;;13.10;4.90;;;;;;;-13.87;100.00;101289.67;106127;1271;1015682;-68
2023/01/09 04:42:02;;;;;;;11.20;5.70;;;;;;;-13.88;100.00;101290.20;106917;1275;26875;-68
2023/01/09 04:44:29;;;;;;;13.10;6.60;;;;;;;-13.87;100.00;101286.21;106206;1276;1003163;-67
2023/01/09 04:46:57;;;;;;;11.70;6.10;;;;;;;-13.87;100.00;101286.90;106894;1276;22707;-67
2023/01/09 04:49:25;;;;;;;12.50;5.70;;;;;;;-13.87;100.00;101283.61;106231;1275;1002951;-68
2023/01/09 04:51:52;;;;;;;10.80;4.60;;;;;;;-13.88;100.00;101271.64;106085;1276;1003741;-69
2023/01/09 04:54:20;;;;;;;11.90;4.90;;;;;;;-13.88;100.00;101270.08;107072;1275;22619;-68
2023/01/09 04:56:47;;;;;;;10.90;4.70;;;;;;;-13.89;100.00;101265.40;106865;1276;22675;-68
2023/01/09 04:59:15;;;;;;;9.50;4.50;;;;;;;-13.90;100.00;101264.50;106822;1276;22909;-68
2023/01/09 05:01:42;;;;;;;16.70;5.00;;;;;;;-13.91;100.00;101265.88;106205;1276;1003918;-67
2023/01/09 05:04:10;;;;;;;7.80;4.30;;;;;;;-13.94;100.00;101264.48;106966;1275;25574;-67
2023/01/09 05:06:37;;;;;;;8.80;4.60;;;;;;;-13.95;100.00;101259.95;106140;1276;1003456;-68
2023/01/09 05:09:05;;;;;;;8.60;4.50;;;;;;;-13.95;100.00;101260.66;106958;1275;24222;-68
2023/01/09 05:11:32;;;;;;;8.70;4.20;;;;;;;-13.95;100.00;101260.83;106891;1276;22568;-69
2023/01/09 05:13:59;;;;;;;16.10;6.20;;;;;;;-13.93;100.00;101257.03;106239;1275;1002454;-68
2023/01/09 05:16:26;;;;;;;10.90;5.10;;;;;;;-13.92;100.00;101253.92;106283;1275;1014704;-66
2023/01/09 05:18:55;;;;;;;9.50;5.30;;;;;;;-13.91;100.00;101253.92;106862;1254;23011;-68
2023/01/09 05:21:23;;;;;;;13.20;6.30;;;;;;;-13.91;100.00;101253.75;106875;1276;24752;-69
2023/01/09 05:23:50;;;;;;;17.70;6.50;;;;;;;-13.90;100.00;101254.63;106302;1275;1002692;-69
2023/01/09 05:26:22;;;;;;;17.80;6.20;;;;;;;-13.90;100.00;101252.04;107056;1275;22770;-67
2023/01/09 05:28:51;;;;;;;13.70;5.10;;;;;;;-13.90;100.00;101256.02;107095;1275;22638;-68
2023/01/09 05:31:18;;;;;;;15.10;5.10;;;;;;;-13.90;100.00;101257.23;106816;1276;22814;-69
2023/01/09 05:33:46;;;;;;;14.10;6.10;;;;;;;-13.89;100.00;101261.23;106228;1275;1002907;-69
2023/01/09 05:36:13;;;;;;;14.30;5.90;;;;;;;-13.89;100.00;101263.84;106816;1276;22629;-68
2023/01/09 05:38:40;;;;;;;24.60;8.80;;;;;;;-13.90;100.00;101262.61;106298;1275;1003031;-68
2023/01/09 05:41:08;;;;;;;15.10;7.30;;;;;;;-13.91;100.00;101260.17;106262;1275;1002918;-67
2023/01/09 05:43:35;;;;;;;17.10;7.90;;;;;;;-13.91;100.00;101257.73;106868;1276;22716;-69
2023/01/09 05:46:02;;;;;;;20.70;7.60;;;;;;;-13.91;100.00;101257.39;106983;1275;22543;-67
2023/01/09 05:48:29;;;;;;;16.80;7.30;;;;;;;-13.92;100.00;101249.07;106068;1252;1003443;-68
2023/01/09 05:50:57;;;;;;;11.80;5.80;;;;;;;-13.93;100.00;101243.17;106120;1276;1003374;-67
2023/01/09 05:53:24;;;;;;;10.90;5.90;;;;;;;-13.92;100.00;101239.89;106029;1254;1003243;-69
2023/01/09 05:55:51;;;;;;;10.90;4.90;;;;;;;-13.90;100.00;101236.08;106843;1276;24293;-68
2023/01/09 05:58:18;;;;;;;10.20;4.50;;;;;;;-13.88;100.00;101231.25;106961;1275;24321;-69
2023/01/09 06:00:47;;;;;;;14.40;7.20;;;;;;;-13.86;100.00;101229.88;106041;1276;1016112;-69
2023/01/09 06:03:14;;;;;;;18.00;7.50;;;;;;;-13.84;100.00;101226.08;106130;1276;1003432;-67
2023/01/09 06:05:41;;;;;;;14.90;6.00;;;;;;;-13.80;100.00;101230.95;107015;1275;22635;-68
2023/01/09 06:08:09;;;;;;;10.20;4.90;;;;;;;-13.76;100.00;101229.42;106831;1276;24415;-68
2023/01/09 06:10:36;;;;;;;12.70;4.90;;;;;;;-13.66;100.00;101227.94;106131;1275;1003341;-67
2023/01/09 06:13:03;;;;;;;7.80;3.50;;;;;;;-13.50;100.00;101227.52;106100;1276;1004186;-70
2023/01/09 06:15:31;;;;;;;16.30;6.70;;;;;;;-13.37;100.00;101223.08;106840;1254;23171;-71
2023/01/09 06:17:58;;;;;;;10.80;4.70;;;;;;;-13.28;100.00;101214.78;106958;1275;23052;-68
2023/01/09 06:20:25;;;;;;;13.00;5.60;;;;;;;-13.21;100.00;101215.84;106227;1275;1003744;-69
2023/01/09 06:22:52;;;;;;;10.30;3.90;;;;;;;-13.17;100.00;101219.17;106243;1275;1002796;-68
2023/01/09 06:25:20;;;;;;;13.40;5.30;;;;;;;-13.14;100.00;101217.26;106751;1276;22548;-69
2023/01/09 06:27:48;;;;;;;10.60;5.40;;;;;;;-13.13;100.00;101217.27;105925;1268;1003035;-70
2023/01/09 06:30:16;;;;;;;13.90;6.40;;;;;;;-13.12;100.00;101218.15;105821;1270;1003296;-69
2023/01/09 06:32:43;;;;;;;11.40;5.80;;;;;;;-13.08;100.00;101217.30;105932;1270;1003159;-71
2023/01/09 06:35:10;;;;;;;16.10;6.50;;;;;;;-13.02;100.00;101208.30;106082;1277;1002829;-69
2023/01/09 06:37:37;;;;;;;18.70;8.00;;;;;;;-12.97;100.00;101201.20;106088;1277;1003203;-69
2023/01/09 06:40:05;;;;;;;24.30;8.70;;;;;;;-12.90;100.00;101202.27;106846;1277;24304;-68
2023/01/09 06:42:33;;;;;;;16.50;8.70;;;;;;;-12.84;100.00;101200.89;106827;1277;24404;-69
2023/01/09 06:45:01;;;;;;;17.50;7.90;;;;;;;-12.80;100.00;101195.17;106859;1277;22722;-67
2023/01/09 06:47:28;;;;;;;17.60;8.70;;;;;;;-12.76;100.00;101188.06;106093;1276;1003403;-67
2023/01/09 06:49:57;;;;;;;19.50;9.40;;;;;;;-12.69;100.00;101194.69;106006;1277;1003188;-67
2023/01/09 06:52:24;;;;;;;14.70;7.50;;;;;;;-12.62;100.00;101191.40;106783;1277;22802;-67
2023/01/09 06:54:51;;;;;;;19.60;8.70;;;;;;;-12.54;100.00;101185.86;106054;1271;1003008;-67
2023/01/09 06:57:18;;;;;;;16.20;6.20;;;;;;;-12.43;100.00;101179.96;106198;1275;1003024;-66
2023/01/09 06:59:46;;;;;;;17.20;8.50;;;;;;;-12.33;100.00;101173.19;106848;1276;22559;-67
2023/01/09 07:02:18;;;;;;;16.00;6.50;;;;;;;-12.21;100.00;101180.14;106191;1275;1003059;-67
2023/01/09 07:04:45;;;;;;;19.20;7.10;;;;;;;-12.11;100.00;101183.98;107502;1275;22532;-67
2023/01/09 07:07:13;;;;;;;16.70;7.40;;;;;;;-12.05;100.00;101183.64;107692;1274;1003033;-68
2023/01/09 07:09:40;;;;;;;11.10;5.50;;;;;;;-11.94;100.00;101178.22;106951;1276;1002499;-66
2023/01/09 07:12:08;;;;;;;19.70;9.10;;;;;;;-11.80;100.00;101167.74;106973;1276;22789;-68
2023/01/09 07:14:35;;;;;;;15.00;7.90;;;;;;;-11.64;100.00;101169.28;106230;1276;1003293;-69
2023/01/09 07:17:03;;;;;;;17.60;8.30;;;;;;;-11.51;100.00;101163.33;106918;1275;22603;-69
2023/01/09 07:19:30;;;;;;;16.80;7.10;;;;;;;-11.38;100.00;101155.28;106878;1264;22875;-68
2023/01/09 07:21:57;;;;;;;16.10;7.20;;;;;;;-11.27;100.00;101154.02;106322;1276;1003066;-68
2023/01/09 07:24:24;;;;;;;13.70;6.40;;;;;;;-11.16;100.00;101156.42;106929;1271;23990;-67
2023/01/09 07:26:52;;;;;;;15.70;6.50;;;;;;;-11.02;100.00;101156.52;106111;1276;1003186;-68
2023/01/09 07:29:19;;;;;;;18.80;8.00;;;;;;;-10.88;100.00;101154.71;106903;1265;22928;-67
2023/01/09 07:31:47;;;;;;;15.40;7.00;;;;;;;-10.75;100.00;101149.41;106668;1276;22856;-67
2023/01/09 07:34:14;;;;;;;18.90;7.00;;;;;;;-10.63;100.00;101145.85;106826;1276;22672;-69
2023/01/09 07:36:45;;;;;;;13.50;6.30;;;;;;;-10.50;100.00;101145.08;106956;1269;22565;-69
2023/01/09 07:39:13;;;;;;;12.60;6.40;;;;;;;-10.37;100.00;101142.71;106915;1276;25259;-70
2023/01/09 07:41:40;;;;;;;15.70;7.00;;;;;;;-10.27;100.00;101140.34;106318;1276;1015973;-69
2023/01/09 07:44:08;;;;;;;16.00;5.90;;;;;;;-10.16;100.00;101137.80;106691;1276;22706;-70
2023/01/09 07:46:37;;;;;;;16.60;7.00;;;;;;;-9.98;100.00;101135.20;106869;1276;22555;-69
2023/01/09 07:49:05;;;;;;;22.30;9.10;;;;;;;-9.73;100.00;101130.59;107005;1276;23976;-69
2023/01/09 07:51:33;;;;;;;19.20;8.50;;;;;;;-9.52;100.00;101130.55;107083;1276;22579;-69
2023/01/09 07:54:00;;;;;;;16.30;6.60;;;;;;;-9.35;100.00;101121.09;107008;1275;25999;-68
2023/01/09 07:56:28;;;;;;;17.00;6.40;;;;;;;-9.19;100.00;101121.60;105954;1277;1003730;-68
2023/01/09 07:58:55;;;;;;;14.50;5.70;;;;;;;-9.02;100.00;101120.66;106641;1277;22641;-69
2023/01/09 08:01:23;;;;;;;11.20;5.60;;;;;;;-8.83;100.00;101118.84;106844;1277;22655;-71
2023/01/09 08:03:52;;;;;;;12.80;5.50;;;;;;;-8.66;100.00;101113.52;106953;1276;22787;-71
2023/01/09 08:06:20;;;;;;;14.20;6.40;;;;;;;-8.48;100.00;101106.77;106210;1276;1003161;-69
2023/01/09 08:08:48;;;;;;;15.10;6.00;;;;;;;-8.31;100.00;101102.44;106870;1277;23691;-69
2023/01/09 08:11:18;;;;;;;11.60;5.00;;;;;;;-8.06;100.00;101089.95;107068;1276;22564;-71
2023/01/09 08:13:45;;;;;;;12.70;5.60;;;;;;;-7.83;100.00;101082.71;107019;1276;24709;-69
2023/01/09 08:16:13;;;;;;;13.40;6.40;;;;;;;-7.71;100.00;101068.63;106265;1275;1003255;-68
2023/01/09 08:18:40;;;;;;;15.20;6.30;;;;;;;-7.60;100.00;101050.21;106784;1276;23233;-70
2023/01/09 08:21:08;;;;;;;14.50;4.50;;;;;;;-7.49;100.00;101031.94;107211;1276;22674;-68
2023/01/09 08:23:36;;;;;;;10.20;4.40;;;;;;;-7.35;100.00;101009.91;106734;1276;24389;-68
2023/01/09 08:26:03;;;;;;;12.20;4.20;;;;;;;-7.28;100.00;100976.83;106768;1276;22486;-70
2023/01/09 08:28:31;;;;;;;15.30;5.20;;;;;;;-7.18;100.00;100949.45;106333;1276;1003554;-70
2023/01/09 08:30:58;;;;;;;13.00;4.60;;;;;;;-7.10;100.00;100923.33;106812;1276;24320;-70
2023/01/09 08:33:26;;;;;;;19.00;5.10;;;;;;;-7.08;100.00;100878.05;106309;1276;1003790;-72
2023/01/09 08:35:54;;;;;;;18.10;6.20;;;;;;;-7.10;100.00;100835.33;106308;1276;1003422;-75
2023/01/09 08:38:22;;;;;;;10.00;5.00;;;;;;;-7.08;100.00;100804.27;107180;1275;25563;-72
2023/01/09 08:40:50;;;;;;;22.00;5.70;;;;;;;-6.99;100.00;100780.73;107027;1275;22818;-72
2023/01/09 08:48:50;;;;;;;16.30;6.10;;;;;;;-6.30;100.00;100677.33;106484;1275;1003163;-75
2023/01/09 08:51:17;;;;;;;11.80;5.30;;;;;;;-6.08;100.00;100655.39;106965;1276;22620;-74
2023/01/09 08:53:44;;;;;;;16.00;5.40;;;;;;;-5.92;100.00;100631.70;106501;1268;1003461;-76
2023/01/09 08:56:12;;;;;;;24.60;9.10;;;;;;;-5.76;100.00;100613.04;106877;1276;22527;-78
2023/01/09 08:58:39;;;;;;;15.20;6.30;;;;;;;-5.64;100.00;100595.20;106403;1276;1002793;-73
2023/01/09 09:01:07;;;;;;;13.20;5.50;;;;;;;-5.48;100.00;100576.55;106109;1276;1003064;-73
2023/01/09 09:03:34;;;;;;;16.90;6.10;;;;;;;-5.31;100.00;100560.27;106958;1276;23002;-73
2023/01/09 09:06:01;;;;;;;20.70;8.10;;;;;;;-5.12;100.00;100559.04;107031;1276;22531;-73
2023/01/09 09:08:29;;;;;;;28.20;9.80;;;;;;;-4.96;100.00;100554.23;107042;1276;22529;-75
2023/01/09 09:10:59;;;;;;;16.90;6.30;;;;;;;-4.93;100.00;100559.22;106808;1276;1003710;-74
2023/01/09 09:13:27;;;;;;;17.80;6.80;;;;;;;-5.06;100.00;100557.42;106389;1276;1003664;-73
2023/01/09 09:15:56;;;;;;;15.50;6.10;;;;;;;-5.13;100.00;100565.26;107455;1276;25311;-73
2023/01/09 09:18:23;;;;;;;22.60;7.30;;;;;;;-5.14;100.00;100566.69;107473;1268;22648;-73
2023/01/09 09:20:51;;;;;;;16.70;5.90;;;;;;;-5.07;100.00;100571.01;106778;1275;1002602;-74
2023/01/09 09:23:19;;;;;;;11.20;4.30;;;;;;;-4.90;100.00;100616.77;106868;1276;1004800;-74
2023/01/09 09:25:46;;;;;;;14.90;5.20;;;;;;;-4.73;100.00;100620.00;106895;1277;1003152;-73
2023/01/09 09:28:13;;;;;;;13.20;4.20;;;;;;;-4.57;100.00;100627.98;107369;1277;22637;-74
2023/01/09 09:30:42;;;;;;;10.30;4.90;;;;;;;-4.47;100.00;100624.39;107585;1276;25437;-74
2023/01/09 09:33:10;;;;;;;16.90;5.50;;;;;;;-4.34;100.00;100614.91;107351;1277;22557;-71
2023/01/09 09:35:37;;;;;;;11.90;3.80;;;;;;;-4.18;100.00;100609.73;106768;1276;1003561;-74
2023/01/09 09:38:04;;;;;;;12.20;5.10;;;;;;;-4.06;100.00;100609.89;106774;1271;1003021;-74
2023/01/09 09:40:56;;;;;;;14.90;4.60;;;;;;;-3.95;100.00;100607.17;106498;1277;1003271;-72
2023/01/09 09:46:28;;;;;;;12.10;4.50;;;;;;;-3.61;100.00;100591.24;106411;1274;1002852;-71
2023/01/09 09:49:06;;;;;;;13.80;5.00;;;;;;;-3.47;100.00;100593.63;107167;1276;22674;-72
2023/01/09 09:51:36;;;;;;;16.80;5.00;;;;;;;-3.61;100.00;100604.13;107446;1276;22530;-68
2023/01/09 09:54:09;;;;;;;21.50;5.30;;;;;;;-3.71;100.00;100609.14;107292;1276;22527;-71
2023/01/09 09:56:45;;;;;;;17.10;5.50;;;;;;;-3.68;100.00;100608.81;107957;1267;22565;-73
2023/01/09 09:59:20;;;;;;;11.20;4.70;;;;;;;-3.62;100.00;100602.06;107813;1276;22531;-72
2023/01/09 10:01:52;;;;;;;15.30;5.00;;;;;;;-3.54;100.00;100591.86;106388;1275;1003005;-70
2023/01/09 10:04:20;;;;;;;13.00;4.70;;;;;;;-3.47;100.00;100593.28;107085;1268;25617;-74
2023/01/09 10:06:49;;;;;;;13.10;5.00;;;;;;;-3.39;100.00;100597.34;107460;1267;23022;-75
2023/01/09 10:09:47;;;;;;;9.70;3.90;;;;;;;-3.33;100.00;100596.19;106596;1275;1003478;-73
2023/01/09 10:12:30;;;;;;;19.80;6.70;;;;;;;-3.28;100.00;100595.60;107313;1270;22996;-73
2023/01/09 10:14:59;;;;;;;13.10;4.70;;;;;;;-3.21;100.00;100588.07;107144;1276;24229;-74
2023/01/09 10:17:44;;;;;;;29.30;11.20;;;;;;;-3.12;100.00;100585.35;106890;1276;1003455;-74
2023/01/09 10:20:23;;;;;;;22.20;8.80;;;;;;;-2.98;100.00;100570.61;106534;1271;1002994;-71
2023/01/09 10:23:10;;;;;;;24.00;10.60;;;;;;;-2.84;100.00;100558.84;106962;1276;22762;-70
2023/01/09 10:25:45;;;;;;;15.90;6.90;;;;;;;-2.79;100.00;100556.33;106459;1276;1016117;-70
2023/01/09 10:28:12;;;;;;;17.60;6.00;;;;;;;-2.71;100.00;100551.14;106328;1276;1003511;-69
2023/01/09 10:30:41;;;;;;;13.10;5.10;;;;;;;-2.71;100.00;100555.40;106395;1276;1002585;-72
2023/01/09 10:33:32;;;;;;;11.20;4.60;;;;;;;-2.75;100.00;100559.84;106351;1276;1002767;-70
2023/01/09 10:36:15;;;;;;;8.70;3.80;;;;;;;-2.77;100.00;100559.92;106392;1276;1003037;-71
2023/01/09 10:38:44;;;;;;;18.50;5.10;;;;;;;-2.65;100.00;100550.19;106908;1276;24241;-72
2023/01/09 10:41:38;;;;;;;16.20;6.20;;;;;;;-2.59;100.00;100548.30;106912;1275;22608;-70
2023/01/09 10:44:44;;;;;;;6.90;3.30;;;;;;;-2.51;100.00;100535.03;106950;1275;22781;-69
2023/01/09 10:47:25;;;;;;;21.40;7.70;;;;;;;-2.63;100.00;100549.04;105849;1283;1002929;-70
2023/01/09 10:49:53;;;;;;;9.10;4.50;;;;;;;-2.77;100.00;100556.92;106812;1276;23938;-71
2023/01/09 10:52:29;;;;;;;25.70;7.40;;;;;;;-2.88;100.00;100553.20;107066;1275;22536;-71
2023/01/09 10:55:00;;;;;;;10.50;4.60;;;;;;;-2.85;100.00;100544.23;107141;1275;22642;-73
2023/01/09 10:57:42;;;;;;;9.50;3.70;;;;;;;-2.71;100.00;100530.13;106257;1276;1002709;-71
2023/01/09 11:00:22;;;;;;;14.60;3.60;;;;;;;-2.61;100.00;100523.15;106395;1275;1003091;-70
2023/01/09 11:02:53;;;;;;;10.10;3.80;;;;;;;-2.49;100.00;100519.02;106267;1276;1003054;-71
2023/01/09 11:05:26;;;;;;;15.70;4.20;;;;;;;-2.39;100.00;100517.98;106517;1275;1003177;-72
2023/01/09 11:08:11;;;;;;;16.00;6.00;;;;;;;-2.30;100.00;100518.80;106451;1275;1003750;-73
2023/01/09 11:10:50;;;;;;;9.10;4.20;;;;;;;-2.27;100.00;100516.68;107239;1275;26515;-72
2023/01/09 11:13:28;;;;;;;12.80;4.90;;;;;;;-2.19;100.00;100514.19;106506;1275;1003659;-74
2023/01/09 11:16:20;;;;;;;11.20;3.90;;;;;;;-2.20;100.00;100516.85;107557;1275;22478;-74
2023/01/09 11:18:51;;;;;;;10.90;4.60;;;;;;;-2.17;100.00;100517.28;106703;1276;1003073;-73